createdAt,value
2022-07-29T00:02:47.321Z,100424.41
2022-07-29T00:05:49.854Z,100421.16
2022-07-29T00:08:52.073Z,100422.22
2022-07-29T00:11:57.791Z,100421.19
2022-07-29T00:14:59.958Z,100418.50
2022-07-29T00:18:02.388Z,100421.59
2022-07-29T00:21:04.507Z,100429.97
2022-07-29T00:24:07.070Z,100422.66
2022-07-29T00:27:09.230Z,100422.19
2022-07-29T00:30:12.025Z,100424.28
2022-07-29T00:33:14.195Z,100425.53
2022-07-29T00:36:16.652Z,100427.41
2022-07-29T00:39:18.772Z,100427.41
2022-07-29T00:42:21.175Z,100429.69
2022-07-29T00:45:23.454Z,100435.25
2022-07-29T00:48:25.882Z,100428.44
2022-07-29T00:51:28.390Z,100431.75
2022-07-29T00:54:31.252Z,100424.66
2022-07-29T00:57:34.330Z,100422.56
2022-07-29T01:00:37.763Z,100421.09
2022-07-29T01:03:39.941Z,100423.72
2022-07-29T01:06:43.566Z,100424.56
2022-07-29T01:09:47.323Z,100416.69
2022-07-29T01:12:52.243Z,100416.72
2022-07-29T01:16:00.282Z,100415.44
2022-07-29T01:19:26.763Z,100418.34
2022-07-29T01:22:35.282Z,100413.59
2022-07-29T01:25:59.052Z,100420.28
2022-07-29T01:29:19.931Z,100414.84
2022-07-29T01:32:29.589Z,100421.66
2022-07-29T01:35:41.947Z,100420.06
2022-07-29T01:38:51.396Z,100402.66
2022-07-29T01:42:13.941Z,100413.00
2022-07-29T01:45:20.851Z,100403.47
2022-07-29T01:48:28.520Z,100410.03
2022-07-29T01:51:43.800Z,100413.59
2022-07-29T01:54:58.221Z,100418.25
2022-07-29T01:58:04.079Z,100408.78
2022-07-29T02:01:07.754Z,100411.78
2022-07-29T02:04:26.636Z,100405.75
2022-07-29T02:07:33.844Z,100407.91
2022-07-29T02:10:38.130Z,100409.50
2022-07-29T02:13:41.983Z,100405.00
2022-07-29T02:16:46.299Z,100417.06
2022-07-29T02:19:49.907Z,100402.41
2022-07-29T02:22:55.636Z,100399.97
2022-07-29T02:26:00.109Z,100401.19
2022-07-29T02:29:03.442Z,100403.00
2022-07-29T02:32:08.287Z,100402.31
2022-07-29T02:35:13.618Z,100399.81
2022-07-29T02:38:36.532Z,100399.31
2022-07-29T02:41:51.055Z,100399.87
2022-07-29T02:44:53.377Z,100398.84
2022-07-29T02:47:58.932Z,100398.47
2022-07-29T02:51:43.468Z,100398.12
2022-07-29T02:55:10.872Z,100394.91
2022-07-29T02:58:30.005Z,100398.19
2022-07-29T03:01:33.992Z,100397.78
2022-07-29T03:04:38.654Z,100396.53
2022-07-29T03:07:43.002Z,100397.31
2022-07-29T03:10:46.673Z,100399.09
2022-07-29T03:13:49.591Z,100399.03
2022-07-29T03:16:52.667Z,100397.06
2022-07-29T03:19:55.599Z,100397.56
2022-07-29T03:22:57.651Z,100391.44
2022-07-29T03:26:00.137Z,100396.37
2022-07-29T03:29:02.256Z,100399.06
2022-07-29T03:32:07.959Z,100404.75
2022-07-29T03:35:10.711Z,100399.97
2022-07-29T03:38:13.144Z,100405.66
2022-07-29T03:41:17.354Z,100391.56
2022-07-29T03:44:27.070Z,100402.56
2022-07-29T03:47:50.055Z,100402.38
2022-07-29T03:50:53.720Z,100403.94
2022-07-29T03:53:55.956Z,100399.75
2022-07-29T03:57:01.909Z,100397.50
2022-07-29T04:00:06.293Z,100407.94
2022-07-29T04:03:10.817Z,100415.72
2022-07-29T04:06:14.001Z,100413.53
2022-07-29T04:09:16.466Z,100417.03
2022-07-29T04:12:18.618Z,100417.91
2022-07-29T04:15:21.195Z,100418.06
2022-07-29T04:18:23.574Z,100416.94
2022-07-29T04:21:26.012Z,100416.37
2022-07-29T04:24:28.617Z,100422.25
2022-07-29T04:27:31.001Z,100422.50
2022-07-29T04:30:34.493Z,100414.41
2022-07-29T04:33:37.115Z,100416.50
2022-07-29T04:36:39.282Z,100425.12
2022-07-29T04:39:41.708Z,100416.87
2022-07-29T04:42:46.380Z,100421.69
2022-07-29T04:45:49.697Z,100422.50
2022-07-29T04:48:51.949Z,100415.66
2022-07-29T04:51:54.392Z,100422.81
2022-07-29T04:54:56.514Z,100425.47
2022-07-29T04:57:58.898Z,100425.28
2022-07-29T05:01:01.141Z,100418.09
2022-07-29T05:04:03.700Z,100419.16
2022-07-29T05:07:05.822Z,100429.41
2022-07-29T05:10:08.965Z,100423.06
2022-07-29T05:13:11.095Z,100427.50
2022-07-29T05:16:14.127Z,100427.09
2022-07-29T05:19:16.441Z,100423.31
2022-07-29T05:22:20.282Z,100423.34
2022-07-29T05:25:22.891Z,100425.00
2022-07-29T05:28:25.277Z,100422.63
2022-07-29T05:31:27.433Z,100424.56
2022-07-29T05:34:29.942Z,100428.47
2022-07-29T05:37:32.155Z,100415.38
2022-07-29T05:40:35.128Z,100417.78
2022-07-29T05:43:37.389Z,100430.88
2022-07-29T05:46:39.835Z,100429.28
2022-07-29T05:49:41.959Z,100428.97
2022-07-29T05:52:44.664Z,100425.28
2022-07-29T05:55:46.950Z,100435.84
2022-07-29T05:58:49.426Z,100432.41
2022-07-29T06:01:51.620Z,100435.25
2022-07-29T06:04:54.685Z,100431.50
2022-07-29T06:07:56.757Z,100439.81
2022-07-29T06:10:59.077Z,100436.41
2022-07-29T06:14:01.251Z,100436.87
2022-07-29T06:17:03.623Z,100438.25
2022-07-29T06:20:07.561Z,100445.59
2022-07-29T06:23:10.946Z,100439.00
2022-07-29T06:26:13.059Z,100441.56
2022-07-29T06:29:15.495Z,100445.59
2022-07-29T06:32:17.846Z,100446.91
2022-07-29T06:35:38.765Z,100448.69
2022-07-29T06:38:49.187Z,100453.00
2022-07-29T06:41:54.964Z,100451.00
2022-07-29T06:45:00.764Z,100452.25
2022-07-29T06:48:03.318Z,100453.87
2022-07-29T06:51:06.626Z,100454.97
2022-07-29T06:54:09.091Z,100453.69
2022-07-29T06:57:11.207Z,100462.56
2022-07-29T07:00:14.545Z,100460.28
2022-07-29T07:03:18.127Z,100452.97
2022-07-29T07:06:20.577Z,100442.25
2022-07-29T07:09:23.382Z,100450.78
2022-07-29T07:12:26.156Z,100446.87
2022-07-29T07:15:39.200Z,100450.28
2022-07-29T07:18:44.143Z,100446.81
2022-07-29T07:21:46.692Z,100440.56
2022-07-29T07:24:49.104Z,100441.56
2022-07-29T07:27:51.257Z,100438.03
2022-07-29T07:30:53.655Z,100433.69
2022-07-29T07:33:55.906Z,100439.06
2022-07-29T07:36:58.317Z,100437.53
2022-07-29T07:40:00.628Z,100436.63
2022-07-29T07:43:03.066Z,100430.66
2022-07-29T07:46:05.400Z,100434.81
2022-07-29T07:49:07.777Z,100428.88
2022-07-29T07:52:10.628Z,100432.88
2022-07-29T07:55:13.724Z,100432.22
2022-07-29T07:58:15.862Z,100427.78
2022-07-29T08:01:19.997Z,100430.25
2022-07-29T08:04:27.277Z,100432.06
2022-07-29T08:07:30.547Z,100432.44
2022-07-29T08:10:51.585Z,100429.34
2022-07-29T08:13:53.743Z,100421.88
2022-07-29T08:16:56.231Z,100426.53
2022-07-29T08:19:58.392Z,100422.72
2022-07-29T08:23:00.841Z,100421.91
2022-07-29T08:26:02.970Z,100421.22
2022-07-29T08:29:05.377Z,100425.19
2022-07-29T08:32:07.641Z,100424.03
2022-07-29T08:35:10.107Z,100415.66
2022-07-29T08:38:12.268Z,100414.09
2022-07-29T08:41:14.734Z,100412.91
2022-07-29T08:44:18.185Z,100411.53
2022-07-29T08:47:33.969Z,100418.03
2022-07-29T08:50:38.903Z,100423.75
2022-07-29T08:53:44.054Z,100415.50
2022-07-29T08:56:50.301Z,100401.03
2022-07-29T08:59:55.148Z,100405.63
2022-07-29T09:03:00.108Z,100397.69
2022-07-29T09:06:04.654Z,100401.41
2022-07-29T09:09:08.506Z,100405.88
2022-07-29T09:12:12.441Z,100394.94
2022-07-29T09:15:14.625Z,100399.44
2022-07-29T09:18:41.289Z,100397.66
2022-07-29T09:21:58.733Z,100394.06
2022-07-29T09:25:01.122Z,100389.03
2022-07-29T09:28:15.559Z,100395.94
2022-07-29T09:31:18.011Z,100380.88
2022-07-29T09:34:38.501Z,100382.59
2022-07-29T09:37:41.094Z,100384.16
2022-07-29T09:40:56.566Z,100379.37
2022-07-29T09:44:02.961Z,100364.09
2022-07-29T09:47:09.276Z,100370.09
2022-07-29T09:50:12.501Z,100366.56
2022-07-29T09:53:35.053Z,100365.50
2022-07-29T09:56:42.146Z,100364.41
2022-07-29T09:59:57.278Z,100364.66
2022-07-29T10:03:02.045Z,100355.09
2022-07-29T10:06:09.899Z,100354.41
2022-07-29T10:09:12.286Z,100356.91
2022-07-29T10:12:15.445Z,100353.00
2022-07-29T10:15:21.826Z,100349.47
2022-07-29T10:18:24.289Z,100350.84
2022-07-29T10:21:35.825Z,100350.56
2022-07-29T10:24:39.710Z,100351.84
2022-07-29T10:27:44.182Z,100344.91
2022-07-29T10:30:47.822Z,100343.44
2022-07-29T10:34:17.909Z,100337.72
2022-07-29T10:37:46.066Z,100333.13
2022-07-29T10:41:22.378Z,100331.16
2022-07-29T10:44:28.333Z,100332.06
2022-07-29T10:47:31.586Z,100327.38
2022-07-29T10:50:54.182Z,100331.44
2022-07-29T10:54:00.730Z,100316.38
2022-07-29T10:57:17.107Z,100315.59
2022-07-29T11:00:19.599Z,100317.16
2022-07-29T11:03:41.526Z,100305.31
2022-07-29T11:07:10.744Z,100302.22
2022-07-29T11:10:16.434Z,100304.87
2022-07-29T11:13:55.789Z,100303.56
2022-07-29T11:17:03.381Z,100294.69
2022-07-29T11:20:44.182Z,100294.25
2022-07-29T11:23:47.138Z,100295.94
2022-07-29T11:27:18.228Z,100286.50
2022-07-29T11:30:42.591Z,100285.38
2022-07-29T11:33:56.362Z,100280.69
2022-07-29T11:37:17.772Z,100268.25
2022-07-29T11:40:21.444Z,100273.19
2022-07-29T11:43:52.107Z,100258.53
2022-07-29T11:46:55.371Z,100259.34
2022-07-29T11:49:59.912Z,100262.31
2022-07-29T11:53:08.804Z,100256.75
2022-07-29T11:56:17.190Z,100257.37
2022-07-29T11:59:21.075Z,100260.41
2022-07-29T12:02:37.865Z,100254.44
2022-07-29T12:05:48.456Z,100255.78
2022-07-29T12:08:54.302Z,100258.63
2022-07-29T12:12:04.655Z,100246.00
2022-07-29T12:15:20.905Z,100243.66
2022-07-29T12:18:25.565Z,100236.00
2022-07-29T12:21:28.932Z,100241.31
2022-07-29T12:24:45.131Z,100236.59
2022-07-29T12:27:48.685Z,100235.25
2022-07-29T12:30:52.414Z,100233.16
2022-07-29T12:33:54.983Z,100231.38
2022-07-29T12:36:59.470Z,100221.88
2022-07-29T12:40:02.750Z,100223.72
2022-07-29T12:43:08.711Z,100203.22
2022-07-29T12:46:15.934Z,100200.47
2022-07-29T12:49:24.793Z,100196.31
2022-07-29T12:52:27.841Z,100189.78
2022-07-29T12:55:41.432Z,100189.31
2022-07-29T12:58:44.529Z,100186.59
2022-07-29T13:01:50.404Z,100183.19
2022-07-29T13:05:02.831Z,100179.81
2022-07-29T13:08:20.351Z,100181.75
2022-07-29T13:11:37.156Z,100179.47
2022-07-29T13:14:41.813Z,100177.44
2022-07-29T13:17:44.530Z,100168.09
2022-07-29T13:20:50.523Z,100156.84
2022-07-29T13:23:52.500Z,100163.41
2022-07-29T13:26:54.790Z,100156.13
2022-07-29T13:29:58.922Z,100151.88
2022-07-29T13:33:01.320Z,100153.34
2022-07-29T13:36:03.527Z,100156.78
2022-07-29T13:39:05.943Z,100151.41
2022-07-29T13:42:10.890Z,100144.78
2022-07-29T13:45:13.833Z,100135.19
2022-07-29T13:48:15.814Z,100136.88
2022-07-29T13:51:18.271Z,100135.16
2022-07-29T13:54:20.895Z,100131.19
2022-07-29T13:57:23.353Z,100133.47
2022-07-29T14:00:25.541Z,100129.03
2022-07-29T14:03:27.869Z,100120.53
2022-07-29T14:06:30.232Z,100113.12
2022-07-29T14:09:41.089Z,100117.63
2022-07-29T14:12:43.985Z,100113.03
2022-07-29T14:15:46.389Z,100111.41
2022-07-29T14:18:48.539Z,100114.19
2022-07-29T14:21:51.154Z,100110.47
2022-07-29T14:24:53.572Z,100108.56
2022-07-29T14:27:56.001Z,100100.34
2022-07-29T14:31:00.788Z,100112.25
2022-07-29T14:34:03.587Z,100098.25
2022-07-29T14:37:07.028Z,100100.06
2022-07-29T14:40:11.255Z,100097.53
2022-07-29T14:43:14.566Z,100092.56
2022-07-29T14:46:16.999Z,100082.72
2022-07-29T14:49:19.191Z,100083.06
2022-07-29T14:52:21.734Z,100089.22
2022-07-29T14:55:24.090Z,100079.78
2022-07-29T14:58:26.494Z,100070.66
2022-07-29T15:01:28.759Z,100073.81
2022-07-29T15:04:31.283Z,100067.59
2022-07-29T15:07:33.368Z,100059.25
2022-07-29T15:10:35.950Z,100059.53
2022-07-29T15:13:38.077Z,100056.44
2022-07-29T15:16:43.660Z,100061.31
2022-07-29T15:19:48.890Z,100052.84
2022-07-29T15:22:51.333Z,100059.12
2022-07-29T15:25:53.443Z,100049.16
2022-07-29T15:28:56.980Z,100044.00
2022-07-29T15:31:59.467Z,100046.69
2022-07-29T15:35:02.241Z,100034.56
2022-07-29T15:38:04.425Z,100044.22
2022-07-29T15:41:09.936Z,100039.56
2022-07-29T15:44:12.136Z,100037.44
2022-07-29T15:47:14.538Z,100032.22
2022-07-29T15:50:20.027Z,100035.34
2022-07-29T15:53:22.421Z,100030.66
2022-07-29T15:56:25.009Z,100032.31
2022-07-29T15:59:27.570Z,100027.59
2022-07-29T16:02:29.703Z,100029.03
2022-07-29T16:05:32.093Z,100028.22
2022-07-29T16:08:34.262Z,100024.41
2022-07-29T16:11:36.811Z,100022.75
2022-07-29T16:14:38.894Z,100024.41
2022-07-29T16:17:41.345Z,100024.94
2022-07-29T16:20:43.452Z,100022.22
2022-07-29T16:23:45.856Z,100023.84
2022-07-29T16:26:47.947Z,100026.87
2022-07-29T16:29:50.528Z,100021.66
2022-07-29T16:32:52.709Z,100027.44
2022-07-29T16:35:55.161Z,100016.44
2022-07-29T16:38:57.289Z,100013.69
2022-07-29T16:42:01.468Z,100024.41
2022-07-29T16:45:05.809Z,100013.66
2022-07-29T16:48:08.494Z,100015.59
2022-07-29T16:51:14.497Z,100007.31
2022-07-29T16:54:17.159Z,100010.06
2022-07-29T16:57:19.392Z,100012.47
2022-07-29T17:00:22.558Z,100006.41
2022-07-29T17:03:24.725Z,100012.06
2022-07-29T17:06:28.672Z,100012.22
2022-07-29T17:09:32.539Z,100013.75
2022-07-29T17:12:39.357Z,100012.56
2022-07-29T17:15:42.987Z,100013.91
2022-07-29T17:18:45.549Z,100014.88
2022-07-29T17:21:49.067Z,100013.06
2022-07-29T17:24:51.791Z,100016.78
2022-07-29T17:28:00.558Z,100021.56
2022-07-29T17:31:03.469Z,100025.53
2022-07-29T17:34:06.730Z,100018.53
2022-07-29T17:37:10.877Z,100016.28
2022-07-29T17:40:12.990Z,100014.88
2022-07-29T17:43:15.385Z,100018.09
2022-07-29T17:46:18.921Z,100013.81
2022-07-29T17:49:21.636Z,100013.69
2022-07-29T17:52:23.762Z,100015.47
2022-07-29T17:55:26.255Z,100016.94
2022-07-29T17:58:28.399Z,100015.53
2022-07-29T18:01:30.831Z,100019.47
2022-07-29T18:04:33.719Z,100020.28
2022-07-29T18:07:35.856Z,100021.44
2022-07-29T18:10:38.428Z,100026.94
2022-07-29T18:13:40.749Z,100028.44
2022-07-29T18:16:43.225Z,100029.88
2022-07-29T18:19:45.399Z,100033.50
2022-07-29T18:22:47.780Z,100031.19
2022-07-29T18:25:49.982Z,100034.09
2022-07-29T18:28:52.382Z,100036.31
2022-07-29T18:31:54.729Z,100044.69
2022-07-29T18:34:57.195Z,100039.03
2022-07-29T18:38:01.038Z,100042.50
2022-07-29T18:41:05.085Z,100046.44
2022-07-29T18:44:08.010Z,100047.37
2022-07-29T18:47:11.394Z,100046.09
2022-07-29T18:50:14.635Z,100054.66
2022-07-29T18:53:17.980Z,100059.56
2022-07-29T18:56:20.757Z,100051.63
2022-07-29T18:59:23.391Z,100060.38
2022-07-29T19:02:26.003Z,100060.91
2022-07-29T19:05:28.392Z,100076.69
2022-07-29T19:08:30.425Z,100082.38
2022-07-29T19:11:32.821Z,100091.00
2022-07-29T19:14:34.998Z,100087.22
2022-07-29T19:17:38.630Z,100095.31
2022-07-29T19:20:41.943Z,100102.59
2022-07-29T19:24:02.511Z,100102.09
2022-07-29T19:27:06.853Z,100112.19
2022-07-29T19:30:09.781Z,100099.69
2022-07-29T19:33:14.519Z,100104.81
2022-07-29T19:36:17.543Z,100098.16
2022-07-29T19:39:19.921Z,100097.87
2022-07-29T19:42:37.663Z,100098.50
2022-07-29T19:45:40.083Z,100092.94
2022-07-29T19:48:42.488Z,100093.50
2022-07-29T19:51:44.617Z,100087.72
2022-07-29T19:54:47.026Z,100091.63
2022-07-29T19:57:49.766Z,100089.72
2022-07-29T20:00:52.132Z,100089.34
2022-07-29T20:03:54.454Z,100092.91
2022-07-29T20:07:01.377Z,100089.34
2022-07-29T20:10:06.171Z,100091.19
2022-07-29T20:13:08.370Z,100091.75
2022-07-29T20:16:10.999Z,100093.16
2022-07-29T20:19:13.597Z,100094.47
2022-07-29T20:22:21.270Z,100105.69
2022-07-29T20:25:23.652Z,100100.19
2022-07-29T20:28:26.112Z,100107.28
2022-07-29T20:31:30.448Z,100109.62
2022-07-29T20:34:33.293Z,100108.19
2022-07-29T20:37:56.040Z,100105.47
2022-07-29T20:40:58.771Z,100115.53
2022-07-29T20:44:01.677Z,100112.03
2022-07-29T20:47:04.122Z,100113.00
2022-07-29T20:50:06.776Z,100114.59
2022-07-29T20:53:09.428Z,100118.06
2022-07-29T20:56:12.451Z,100126.72
2022-07-29T20:59:14.945Z,100124.91
2022-07-29T21:02:17.263Z,100128.66
2022-07-29T21:05:19.854Z,100131.06
2022-07-29T21:08:22.285Z,100132.28
2022-07-29T21:11:43.611Z,100128.34
2022-07-29T21:14:47.915Z,100139.72
2022-07-29T21:17:52.507Z,100139.13
2022-07-29T21:20:55.378Z,100140.41
2022-07-29T21:23:57.655Z,100145.13
2022-07-29T21:27:21.258Z,100145.56
2022-07-29T21:30:24.180Z,100149.37
2022-07-29T21:33:28.059Z,100152.09
2022-07-29T21:39:52.635Z,100159.91
2022-07-29T21:42:55.048Z,100158.34
2022-07-29T21:45:58.673Z,100148.53
2022-07-29T21:49:01.180Z,100154.34
2022-07-29T21:52:04.154Z,100162.13
2022-07-29T21:55:07.475Z,100169.53
2022-07-29T21:58:15.262Z,100169.37
2022-07-29T22:01:17.685Z,100177.50
2022-07-29T22:04:20.427Z,100181.09
2022-07-29T22:07:22.581Z,100176.50
2022-07-29T22:10:26.947Z,100183.81
2022-07-29T22:13:29.059Z,100185.28
2022-07-29T22:16:31.778Z,100189.25
2022-07-29T22:19:33.936Z,100194.50
2022-07-29T22:22:36.348Z,100180.53
2022-07-29T22:25:38.473Z,100190.34
2022-07-29T22:28:40.940Z,100193.69
2022-07-29T22:31:43.908Z,100190.81
2022-07-29T22:34:46.402Z,100183.75
2022-07-29T22:37:48.432Z,100190.81
2022-07-29T22:40:51.251Z,100185.41
2022-07-29T22:43:53.383Z,100195.63
2022-07-29T22:46:57.283Z,100196.84
2022-07-29T22:49:59.466Z,100195.81
2022-07-29T22:53:01.843Z,100184.53
2022-07-29T22:56:04.352Z,100182.25
2022-07-29T22:59:06.759Z,100178.09
2022-07-29T23:02:08.898Z,100187.66
2022-07-29T23:05:11.398Z,100187.28
2022-07-29T23:08:13.533Z,100173.31
2022-07-29T23:11:15.882Z,100181.44
2022-07-29T23:14:18.069Z,100172.47
2022-07-29T23:17:20.488Z,100171.63
2022-07-29T23:20:22.783Z,100174.97
2022-07-29T23:23:25.234Z,100169.94
2022-07-29T23:26:34.369Z,100169.50
2022-07-29T23:29:37.001Z,100159.69
2022-07-29T23:32:39.171Z,100164.88
2022-07-29T23:35:41.583Z,100154.25
2022-07-29T23:38:44.203Z,100165.28
2022-07-29T23:41:46.811Z,100154.47
2022-07-29T23:44:48.925Z,100161.09
2022-07-29T23:47:51.355Z,100160.69
2022-07-29T23:50:53.502Z,100144.44
2022-07-29T23:53:56.088Z,100135.03
2022-07-29T23:56:58.473Z,100144.88
